Time;durP1;ratioP1;P1;durP2;ratioP2;P2;SDS_P1;SDS_P2;PMS_P1;PMS_P2;Temp;Humidity;BMP_temperature;BMP_pressure;BME280_temperature;BME280_humidity;BME280_pressure;Samples;Min_cycle;Max_cycle;Signal;HPM_P1;HPM_P2
2021/03/28 00:01:00;;;;;;;10.45;3.83;;;;;;;6.44;65.58;102680.44;5097177;28;20036;-41
2021/03/28 00:03:31;;;;;;;11.02;3.28;;;;;;;6.44;64.96;102683.13;5097076;28;20111;-40
2021/03/28 00:06:19;;;;;;;13.77;3.78;;;;;;;6.45;64.98;102677.63;5097399;28;20474;-40
2021/03/28 00:09:28;;;;;;;11.30;3.38;;;;;;;6.44;65.00;102670.56;5096847;28;20036;-40
2021/03/28 00:12:23;;;;;;;15.52;3.08;;;;;;;6.45;65.45;102684.84;5054320;28;20559;-40
2021/03/28 00:14:54;;;;;;;12.35;3.50;;;;;;;6.43;65.37;102684.97;5053342;28;20154;-40
2021/03/28 00:17:19;;;;;;;11.98;3.65;;;;;;;6.42;65.72;102677.94;5054492;28;20045;-40
2021/03/28 00:19:51;;;;;;;13.43;3.00;;;;;;;6.41;66.13;102687.00;5038292;28;20397;-40
2021/03/28 00:22:27;;;;;;;10.25;3.38;;;;;;;6.41;66.08;102689.69;5054376;28;20434;-40
2021/03/28 00:25:02;;;;;;;9.75;2.95;;;;;;;6.43;65.80;102681.44;5054713;28;20033;-40
2021/03/28 00:27:38;;;;;;;11.15;2.83;;;;;;;6.41;66.39;102681.63;5054041;28;20500;-40
2021/03/28 00:30:29;;;;;;;10.50;3.23;;;;;;;6.42;66.17;102671.72;5054310;28;20041;-40
2021/03/28 00:33:10;;;;;;;8.73;2.90;;;;;;;6.40;66.61;102679.94;5054015;28;20521;-40
2021/03/28 00:35:51;;;;;;;10.85;2.97;;;;;;;6.40;66.51;102668.34;5054302;28;20401;-40
2021/03/28 00:38:37;;;;;;;8.95;3.10;;;;;;;6.36;66.87;102672.34;5053934;28;20068;-41
2021/03/28 00:41:16;;;;;;;12.00;3.90;;;;;;;6.32;66.79;102666.44;5054031;28;20087;-40
2021/03/28 00:43:59;;;;;;;6.25;2.60;;;;;;;6.29;67.07;102666.75;5053951;28;20491;-40
2021/03/28 00:46:44;;;;;;;11.88;3.22;;;;;;;6.29;67.12;102668.59;5054302;28;20068;-40
2021/03/28 00:49:22;;;;;;;13.45;2.90;;;;;;;6.24;67.06;102661.00;5080268;28;20040;-40
2021/03/28 00:51:51;;;;;;;12.82;3.22;;;;;;;6.21;67.49;102655.97;5096529;28;20031;-40
2021/03/28 00:54:20;;;;;;;9.52;3.05;;;;;;;6.17;67.60;102660.81;5096179;28;20024;-40
2021/03/28 00:56:49;;;;;;;14.18;2.80;;;;;;;6.15;68.08;102656.63;5096109;28;20101;-40
2021/03/28 00:59:32;;;;;;;14.23;3.42;;;;;;;6.12;68.23;102654.22;5096576;28;20028;-40
2021/03/28 01:02:10;;;;;;;14.85;3.35;;;;;;;6.10;67.61;102653.53;5095736;28;20024;-40
2021/03/28 01:04:53;;;;;;;10.27;3.20;;;;;;;6.03;68.43;102656.00;5095990;28;20038;-40
2021/03/28 01:07:23;;;;;;;13.65;3.15;;;;;;;6.03;68.00;102656.00;5095826;28;20028;-40
2021/03/28 01:10:07;;;;;;;14.05;3.22;;;;;;;6.00;68.85;102661.69;5096135;28;20097;-40
2021/03/28 01:13:10;;;;;;;12.50;3.25;;;;;;;5.98;68.68;102657.47;5095871;28;20427;-40
2021/03/28 01:16:16;;;;;;;7.93;2.75;;;;;;;5.94;68.76;102657.78;5096330;28;20028;-40
2021/03/28 01:18:55;;;;;;;11.80;3.15;;;;;;;5.88;69.31;102653.00;5096027;28;20020;-40
2021/03/28 01:21:36;;;;;;;8.43;2.92;;;;;;;5.90;69.20;102648.34;5095631;28;20064;-40
2021/03/28 01:24:32;;;;;;;13.05;2.80;;;;;;;5.87;68.84;102656.69;5096033;28;20118;-41
2021/03/28 01:27:10;;;;;;;13.02;3.10;;;;;;;5.84;69.38;102642.75;5095665;28;20020;-40
2021/03/28 01:29:49;;;;;;;11.95;2.90;;;;;;;5.83;69.70;102639.22;5096071;28;20070;-40
2021/03/28 01:32:27;;;;;;;12.48;3.28;;;;;;;5.83;69.58;102649.94;5095871;28;20043;-40
2021/03/28 01:34:55;;;;;;;13.80;3.08;;;;;;;5.79;69.88;102648.56;5095852;28;20032;-40
2021/03/28 01:37:29;;;;;;;10.90;3.83;;;;;;;5.76;70.30;102648.91;5095235;28;20032;-40
2021/03/28 01:40:08;;;;;;;13.65;3.17;;;;;;;5.74;70.45;102648.19;5095023;28;20032;-40
2021/03/28 01:42:42;;;;;;;11.82;3.30;;;;;;;5.75;70.24;102643.66;5095459;28;20504;-41
2021/03/28 01:45:35;;;;;;;9.65;2.95;;;;;;;5.76;70.58;102634.59;5094868;28;20541;-40
2021/03/28 01:48:05;;;;;;;14.48;3.35;;;;;;;5.74;70.65;102628.56;5095275;28;20028;-40
2021/03/28 01:51:10;;;;;;;11.15;2.80;;;;;;;5.77;70.26;102625.59;5095318;28;20549;-40
2021/03/28 01:53:41;;;;;;;10.98;2.90;;;;;;;5.77;70.33;102622.91;5053021;28;20110;-40
2021/03/28 01:56:37;;;;;;;7.28;2.50;;;;;;;5.78;70.34;102621.91;5035516;28;20033;-40
2021/03/28 01:59:23;;;;;;;10.13;2.80;;;;;;;5.79;70.64;102620.88;5052229;28;20082;-40
2021/03/28 02:02:01;;;;;;;9.45;3.35;;;;;;;5.75;70.87;102619.50;4992904;28;20055;-40
2021/03/28 02:04:48;;;;;;;11.10;3.30;;;;;;;5.73;71.18;102622.34;4993344;28;20061;-40
2021/03/28 02:07:51;;;;;;;9.68;2.78;;;;;;;5.76;71.24;102614.00;4993190;28;20042;-40
2021/03/28 02:10:50;;;;;;;11.70;2.97;;;;;;;5.77;70.54;102621.06;4992876;28;20121;-40
2021/03/28 02:13:35;;;;;;;9.18;2.65;;;;;;;5.74;71.58;102613.28;4993371;28;20045;-40
2021/03/28 02:16:10;;;;;;;8.70;3.17;;;;;;;5.72;71.39;102617.16;4993155;28;20345;-40
2021/03/28 02:19:16;;;;;;;10.75;3.65;;;;;;;5.72;71.21;102619.84;4993050;28;20120;-40
2021/03/28 02:22:14;;;;;;;13.07;3.10;;;;;;;5.71;71.21;102612.75;4992390;28;20407;-41
2021/03/28 02:24:58;;;;;;;;;;;;;;;5.76;70.55;102615.81;4993537;28;20113;-41
2021/03/28 02:28:06;;;;;;;11.55;2.80;;;;;;;5.70;71.21;102619.97;4992753;28;19948;-41
2021/03/28 02:30:35;;;;;;;10.15;2.30;;;;;;;5.69;71.39;102631.72;5039293;28;20572;-40
2021/03/28 02:33:39;;;;;;;11.35;3.45;;;;;;;5.66;71.79;102623.97;5052321;28;20075;-41
2021/03/28 02:36:27;;;;;;;12.82;2.72;;;;;;;5.64;71.83;102629.50;5041010;28;20049;-41
2021/03/28 02:39:21;;;;;;;13.45;3.05;;;;;;;5.63;71.97;102624.28;5072139;28;20507;-40
2021/03/28 02:42:01;;;;;;;10.35;2.63;;;;;;;5.64;71.94;102624.13;5094645;28;20098;-41
2021/03/28 02:44:42;;;;;;;10.77;3.05;;;;;;;5.61;72.97;102618.22;5094074;28;20107;-41
2021/03/28 02:47:30;;;;;;;15.55;3.53;;;;;;;5.57;72.58;102622.22;5093954;28;20564;-41
2021/03/28 02:50:15;;;;;;;11.77;2.72;;;;;;;5.58;72.19;102616.69;5093285;28;20024;-41
2021/03/28 02:52:49;;;;;;;11.75;2.58;;;;;;;5.51;73.02;102617.47;5094782;28;20060;-41
2021/03/28 02:55:44;;;;;;;9.10;3.10;;;;;;;5.49;73.16;102609.56;5093949;28;20032;-41
2021/03/28 02:58:41;;;;;;;9.90;2.40;;;;;;;5.53;72.63;102610.13;5093788;28;20043;-40
2021/03/28 03:01:36;;;;;;;14.48;3.17;;;;;;;5.47;73.34;102610.75;5094101;28;20051;-40
2021/03/28 03:04:20;;;;;;;12.20;2.63;;;;;;;5.48;73.44;102599.00;5094048;28;20024;-41
2021/03/28 03:07:09;;;;;;;13.10;3.13;;;;;;;5.46;73.08;102599.13;5092977;28;20464;-41
2021/03/28 03:10:12;;;;;;;13.48;3.13;;;;;;;5.44;73.45;102606.50;5093955;28;20028;-40
2021/03/28 03:13:02;;;;;;;10.25;3.15;;;;;;;5.41;73.77;102609.50;5093373;28;20480;-40
2021/03/28 03:15:52;;;;;;;8.63;2.60;;;;;;;5.42;73.35;102603.16;5093559;28;20055;-41
2021/03/28 03:18:39;;;;;;;8.30;2.53;;;;;;;5.40;73.82;102602.44;5094063;28;20028;-41
2021/03/28 03:21:35;;;;;;;13.43;2.63;;;;;;;5.41;73.67;102599.59;5093844;28;20353;-41
2021/03/28 03:24:27;;;;;;;13.25;3.08;;;;;;;5.43;73.80;102603.00;5093870;28;20449;-40
2021/03/28 03:27:11;;;;;;;12.88;2.97;;;;;;;5.42;74.01;102609.34;5093993;28;20028;-41
2021/03/28 03:29:58;;;;;;;8.05;2.60;;;;;;;5.42;73.53;102606.69;5094571;28;20072;-41
2021/03/28 03:32:49;;;;;;;12.10;3.42;;;;;;;5.40;73.66;102605.97;5093362;28;20375;-41
2021/03/28 03:35:26;;;;;;;7.40;2.72;;;;;;;5.44;73.84;102617.25;5093766;28;20046;-40
2021/03/28 03:38:04;;;;;;;15.52;3.58;;;;;;;5.42;73.84;102612.03;5093413;28;20028;-41
2021/03/28 03:40:35;;;;;;;11.75;3.05;;;;;;;5.47;73.72;102610.75;5093628;28;20107;-40
2021/03/28 03:43:18;;;;;;;10.55;2.78;;;;;;;5.47;73.65;102606.22;5093875;28;20056;-41
2021/03/28 03:45:57;;;;;;;8.80;2.80;;;;;;;5.48;73.69;102607.91;5093567;28;20024;-41
2021/03/28 03:48:27;;;;;;;13.27;3.17;;;;;;;5.48;73.74;102610.59;5093713;28;20024;-41
2021/03/28 03:51:07;;;;;;;15.82;3.78;;;;;;;5.51;73.58;102615.63;5094069;28;20055;-41
2021/03/28 03:53:47;;;;;;;8.70;2.80;;;;;;;5.51;73.61;102617.47;5093793;28;20073;-41
2021/03/28 03:56:31;;;;;;;8.68;2.65;;;;;;;5.55;73.18;102610.78;5093259;28;20020;-41
2021/03/28 03:59:12;;;;;;;10.40;2.85;;;;;;;5.55;73.68;102617.00;5092862;28;20088;-41
2021/03/28 04:02:10;;;;;;;6.90;2.40;;;;;;;5.58;73.67;102618.53;5093158;28;20482;-41
2021/03/28 04:04:44;;;;;;;;;;;;;;;5.60;73.11;102616.53;5094452;28;20380;-41
2021/03/28 04:07:32;;;;;;;12.00;2.95;;;;;;;5.57;73.50;102608.81;5093616;28;19957;-41
2021/03/28 04:10:00;;;;;;;7.88;2.40;;;;;;;5.57;73.33;102609.66;5093193;28;20043;-41
2021/03/28 04:12:39;;;;;;;9.48;2.47;;;;;;;5.58;73.43;102610.50;5093374;28;20056;-40
2021/03/28 04:15:22;;;;;;;14.65;2.95;;;;;;;5.58;73.51;102616.69;5093657;28;20040;-40
2021/03/28 04:18:11;;;;;;;16.10;3.15;;;;;;;5.58;73.41;102622.06;5094539;28;20032;-41
2021/03/28 04:20:49;;;;;;;9.57;3.20;;;;;;;5.56;73.71;102616.03;5097278;28;20060;-41
2021/03/28 04:23:26;;;;;;;8.25;2.30;;;;;;;5.58;73.65;102623.91;5097341;28;20063;-41
2021/03/28 04:26:09;;;;;;;9.45;2.55;;;;;;;5.61;73.35;102615.53;5096952;28;20513;-41
2021/03/28 04:28:50;;;;;;;9.25;2.55;;;;;;;5.61;74.10;102618.22;5095458;28;20109;-41
2021/03/28 04:31:30;;;;;;;7.25;2.30;;;;;;;5.67;73.30;102618.47;5097213;28;20028;-40
2021/03/28 04:34:09;;;;;;;9.65;2.70;;;;;;;5.67;74.04;102610.41;5096613;28;20020;-40
2021/03/28 04:36:49;;;;;;;6.38;2.40;;;;;;;5.68;73.61;102619.31;5096511;28;20050;-40
2021/03/28 04:39:51;;;;;;;9.80;2.58;;;;;;;5.74;73.80;102617.81;5096692;28;20081;-40
2021/03/28 04:42:53;;;;;;;11.88;3.40;;;;;;;5.75;74.14;102606.09;5096451;28;20031;-41
2021/03/28 04:45:56;;;;;;;10.88;2.47;;;;;;;5.78;74.00;102612.00;5096651;28;20060;-41
2021/03/28 04:48:58;;;;;;;9.00;2.47;;;;;;;5.78;73.75;102608.47;5096227;28;20028;-41
2021/03/28 04:51:27;;;;;;;9.52;2.33;;;;;;;5.77;73.56;102601.41;5096059;28;20507;-41
2021/03/28 04:54:30;;;;;;;11.13;2.80;;;;;;;5.79;73.84;102594.88;5096157;28;20035;-41
2021/03/28 04:57:09;;;;;;;10.57;2.72;;;;;;;5.80;73.74;102593.88;5095848;28;20484;-40
2021/03/28 05:00:22;;;;;;;7.55;2.63;;;;;;;5.83;73.58;102590.88;5095788;28;20484;-41
2021/03/28 05:03:08;;;;;;;11.15;2.63;;;;;;;5.83;74.45;102585.50;5053307;28;20033;-41
2021/03/28 05:05:58;;;;;;;8.13;2.20;;;;;;;5.85;73.82;102588.88;5053658;28;20091;-40
2021/03/28 05:08:32;;;;;;;13.77;3.22;;;;;;;5.88;74.14;102585.88;5053338;28;20033;-41
2021/03/28 05:11:09;;;;;;;10.10;3.05;;;;;;;5.90;73.34;102585.72;5053151;28;20132;-40
2021/03/28 05:13:56;;;;;;;8.07;2.47;;;;;;;5.95;72.82;102591.50;5053716;28;20307;-40
2021/03/28 05:16:44;;;;;;;9.43;2.45;;;;;;;5.99;73.32;102590.19;5053385;28;20462;-41
2021/03/28 05:19:40;;;;;;;8.80;2.83;;;;;;;6.00;73.43;102586.47;5043592;28;20044;-41
2021/03/28 05:22:27;;;;;;;8.02;2.47;;;;;;;6.03;72.93;102591.56;5053511;28;20037;-40
2021/03/28 05:25:10;;;;;;;10.38;2.83;;;;;;;6.05;73.51;102594.06;5053122;28;20116;-41
2021/03/28 05:28:13;;;;;;;7.78;2.38;;;;;;;6.06;73.04;102599.31;5053000;28;20036;-41
2021/03/28 05:30:53;;;;;;;7.15;1.98;;;;;;;6.11;73.16;102593.47;5052258;28;20033;-41
2021/03/28 05:33:36;;;;;;;9.57;2.10;;;;;;;6.13;73.11;102599.50;5053077;28;20143;-41
2021/03/28 05:36:26;;;;;;;10.18;2.50;;;;;;;6.13;73.26;102589.59;5053039;28;20033;-41
2021/03/28 05:39:13;;;;;;;7.10;2.05;;;;;;;6.14;73.15;102602.03;5068740;28;20385;-42
2021/03/28 05:42:09;;;;;;;9.90;2.00;;;;;;;6.18;72.98;102589.13;5095885;28;20028;-41
2021/03/28 05:44:59;;;;;;;7.90;2.17;;;;;;;6.17;72.80;102582.06;5095783;28;20036;-41
2021/03/28 05:47:47;;;;;;;6.78;2.03;;;;;;;6.19;73.74;102582.75;5095990;28;20123;-41
2021/03/28 05:50:28;;;;;;;5.93;2.10;;;;;;;6.23;72.58;102586.78;5094853;28;20048;-40
2021/03/28 05:52:59;;;;;;;9.45;2.25;;;;;;;6.23;72.83;102576.06;5095357;28;20031;-40
2021/03/28 05:55:49;;;;;;;9.43;2.40;;;;;;;6.27;73.43;102571.22;5095372;28;20028;-40
2021/03/28 05:58:25;;;;;;;8.63;2.00;;;;;;;6.30;73.13;102574.41;5095560;28;20032;-41
2021/03/28 06:01:00;;;;;;;6.80;2.13;;;;;;;6.31;72.41;102576.09;5095237;28;20074;-40
2021/03/28 06:03:44;;;;;;;7.55;2.50;;;;;;;6.35;72.68;102579.31;5095442;28;20027;-40
2021/03/28 06:06:32;;;;;;;9.65;2.38;;;;;;;6.35;72.77;102573.94;5094765;28;20023;-40
2021/03/28 06:09:26;;;;;;;6.38;1.90;;;;;;;6.37;72.46;102582.69;5095042;28;20016;-40
2021/03/28 06:12:22;;;;;;;7.07;2.17;;;;;;;6.37;73.08;102579.97;5095010;28;20103;-40
2021/03/28 06:14:59;;;;;;;10.85;2.17;;;;;;;6.34;72.88;102569.53;5094390;28;20063;-40
2021/03/28 06:17:36;;;;;;;10.15;2.78;;;;;;;6.36;73.05;102571.09;5094900;28;20107;-40
2021/03/28 06:20:21;;;;;;;7.35;1.77;;;;;;;6.43;72.84;102577.47;5095170;28;20031;-40
2021/03/28 06:23:12;;;;;;;7.60;2.08;;;;;;;6.47;72.86;102569.94;5095272;28;20039;-41
2021/03/28 06:25:46;;;;;;;7.40;2.00;;;;;;;6.49;72.13;102567.97;5094471;28;20084;-42
2021/03/28 06:28:41;;;;;;;9.00;2.20;;;;;;;6.54;72.71;102576.38;5094012;28;20558;-41
2021/03/28 06:31:12;;;;;;;4.75;2.03;;;;;;;6.54;72.36;102579.06;5094970;28;20028;-40
2021/03/28 06:34:02;;;;;;;8.02;2.25;;;;;;;6.62;72.66;102580.94;5093951;28;20024;-42
2021/03/28 06:36:56;;;;;;;10.15;2.50;;;;;;;6.65;72.36;102586.00;5094475;28;20099;-41
2021/03/28 06:39:50;;;;;;;7.47;2.38;;;;;;;6.67;72.60;102589.34;5094458;28;20468;-41
2021/03/28 06:42:39;;;;;;;7.28;2.22;;;;;;;6.69;72.34;102592.72;5093719;28;20477;-40
2021/03/28 06:45:36;;;;;;;10.52;2.90;;;;;;;6.74;72.73;102585.00;5094172;28;20032;-41
2021/03/28 06:48:38;;;;;;;9.27;2.38;;;;;;;6.82;73.02;102593.09;5094019;28;20393;-41
2021/03/28 06:51:26;;;;;;;6.28;2.38;;;;;;;6.91;72.38;102585.88;5094379;28;20130;-41
2021/03/28 06:54:06;;;;;;;6.53;2.13;;;;;;;7.01;72.55;102585.75;5051746;28;20047;-41
2021/03/28 06:56:44;;;;;;;8.35;2.38;;;;;;;7.09;71.10;102594.69;5034707;28;20041;-41
2021/03/28 06:59:33;;;;;;;8.25;2.25;;;;;;;7.13;72.37;102593.34;5051446;28;20046;-41
2021/03/28 07:02:27;;;;;;;10.90;2.67;;;;;;;7.18;71.59;102601.75;5051727;28;20033;-41
2021/03/28 07:05:24;;;;;;;13.93;2.65;;;;;;;7.23;72.23;102604.78;4992302;28;20042;-41
2021/03/28 07:08:14;;;;;;;9.52;2.45;;;;;;;7.25;71.73;102599.22;4992339;28;20034;-41
2021/03/28 07:11:01;;;;;;;9.60;2.40;;;;;;;7.36;71.26;102601.59;4992069;28;20043;-41
2021/03/28 07:13:32;;;;;;;7.95;2.40;;;;;;;7.46;71.88;102596.06;4992242;28;20129;-41
2021/03/28 07:16:53;;;;;;;6.50;2.15;;;;;;;7.64;71.10;102596.72;4992510;28;20046;-41
2021/03/28 07:19:24;;;;;;;8.30;2.42;;;;;;;7.82;70.52;102596.56;4973064;28;20121;-42
2021/03/28 07:22:20;;;;;;;8.27;2.92;;;;;;;7.99;70.50;102605.44;4972702;28;20463;-41
2021/03/28 07:25:20;;;;;;;7.72;2.40;;;;;;;8.11;70.34;102608.63;4972636;28;20042;-41
2021/03/28 07:27:54;;;;;;;7.38;2.47;;;;;;;8.27;70.01;102597.81;4971814;28;20065;-41
2021/03/28 07:30:51;;;;;;;9.48;2.50;;;;;;;8.44;70.02;102604.88;4983253;28;20398;-41
2021/03/28 07:34:01;;;;;;;7.45;2.85;;;;;;;8.54;69.05;102601.09;5011140;28;20116;-40
2021/03/28 07:37:07;;;;;;;8.82;2.90;;;;;;;8.63;68.54;102606.28;5009231;28;20046;-41
2021/03/28 07:40:09;;;;;;;8.38;2.88;;;;;;;8.71;69.49;102614.34;5011207;28;20161;-41
2021/03/28 07:43:08;;;;;;;10.93;2.97;;;;;;;8.80;68.70;102609.78;5046463;28;20064;-41
2021/03/28 07:46:07;;;;;;;4.95;2.45;;;;;;;8.94;68.27;102600.94;5070832;28;20088;-41
2021/03/28 07:48:51;;;;;;;8.50;2.38;;;;;;;9.09;68.25;102601.00;5071301;28;20473;-41
2021/03/28 07:51:54;;;;;;;9.38;3.28;;;;;;;9.19;67.01;102612.41;5093342;28;20056;-42
2021/03/28 07:54:45;;;;;;;10.23;3.00;;;;;;;9.23;66.70;102607.50;5097517;28;20044;-41
2021/03/28 07:57:29;;;;;;;8.43;2.45;;;;;;;9.27;67.50;102606.97;5097299;28;20024;-41
2021/03/28 08:00:33;;;;;;;5.60;2.13;;;;;;;9.35;67.46;102611.47;5097803;28;20119;-40
2021/03/28 08:03:10;;;;;;;9.10;2.80;;;;;;;9.34;66.21;102607.09;5097096;28;20035;-40
2021/03/28 08:06:13;;;;;;;8.07;2.63;;;;;;;9.35;66.76;102606.06;5097627;28;20054;-40
2021/03/28 08:09:15;;;;;;;9.98;2.60;;;;;;;9.37;66.17;102603.16;5097500;28;20020;-40
2021/03/28 08:11:55;;;;;;;7.93;2.60;;;;;;;9.40;66.45;102600.13;5097376;28;20028;-40
2021/03/28 08:14:27;;;;;;;6.38;2.60;;;;;;;9.47;65.61;102599.22;5097318;28;20024;-41
2021/03/28 08:17:20;;;;;;;10.70;3.17;;;;;;;9.57;65.44;102608.94;5097500;28;20419;-40
2021/03/28 08:20:23;;;;;;;9.48;3.03;;;;;;;9.67;65.17;102612.22;5097478;28;20027;-40
2021/03/28 08:23:21;;;;;;;15.35;3.13;;;;;;;9.77;65.69;102596.59;5096851;28;20030;-40
2021/03/28 08:26:13;;;;;;;10.30;2.78;;;;;;;9.79;65.28;102606.19;5096861;28;20377;-40
2021/03/28 08:28:44;;;;;;;8.52;2.60;;;;;;;9.88;65.36;102600.72;5096692;28;20048;-40
2021/03/28 08:31:15;;;;;;;11.65;2.53;;;;;;;9.96;64.08;102603.34;5096993;28;20111;-41
2021/03/28 08:34:04;;;;;;;8.07;2.63;;;;;;;10.04;64.44;102606.78;5097194;28;20081;-41
2021/03/28 08:36:54;;;;;;;9.07;2.60;;;;;;;10.19;64.86;102589.75;5096893;28;20036;-42
2021/03/28 08:39:37;;;;;;;11.70;3.03;;;;;;;10.25;64.69;102608.81;5096818;28;20107;-41
2021/03/28 08:42:30;;;;;;;11.30;2.75;;;;;;;10.30;64.24;102605.56;5096252;28;20024;-41
2021/03/28 08:45:11;;;;;;;10.85;2.70;;;;;;;10.37;63.62;102598.38;5096156;28;20028;-40
2021/03/28 08:47:55;;;;;;;10.70;3.20;;;;;;;10.34;63.17;102598.72;5096297;28;20034;-40
2021/03/28 08:50:41;;;;;;;10.00;2.75;;;;;;;10.33;64.27;102591.66;5097091;28;20431;-40
2021/03/28 08:53:35;;;;;;;7.82;2.67;;;;;;;10.28;63.59;102602.19;5096217;28;20052;-40
2021/03/28 08:56:18;;;;;;;9.68;2.88;;;;;;;10.43;63.88;102599.47;5096768;28;20024;-40
2021/03/28 08:58:58;;;;;;;9.07;2.50;;;;;;;10.56;63.95;102595.09;5096642;28;20158;-40
2021/03/28 09:01:39;;;;;;;10.60;2.30;;;;;;;10.60;61.64;102598.28;5096032;28;20116;-40
2021/03/28 09:04:22;;;;;;;11.93;2.53;;;;;;;10.65;61.77;102597.69;5096042;28;20039;-40
2021/03/28 09:06:57;;;;;;;9.15;2.42;;;;;;;10.66;60.82;102588.56;5095669;28;20103;-41
2021/03/28 09:09:39;;;;;;;9.32;2.55;;;;;;;10.72;61.29;102598.63;5095929;28;20034;-40
2021/03/28 09:12:36;;;;;;;8.52;2.45;;;;;;;10.70;60.49;102579.88;5095880;28;20070;-41
2021/03/28 09:15:33;;;;;;;8.48;2.95;;;;;;;10.76;58.93;102583.69;5096217;28;20016;-40
2021/03/28 09:18:20;;;;;;;14.23;3.50;;;;;;;10.96;59.47;102584.75;5096119;28;20028;-40
2021/03/28 09:20:51;;;;;;;6.00;1.98;;;;;;;11.03;58.04;102595.66;5095697;28;20496;-40
2021/03/28 09:23:42;;;;;;;12.07;2.90;;;;;;;10.97;57.03;102591.84;5095086;28;20036;-41
2021/03/28 09:26:18;;;;;;;6.57;2.05;;;;;;;11.01;57.05;102587.72;5096227;28;20365;-40
2021/03/28 09:28:57;;;;;;;12.77;2.03;;;;;;;11.12;56.08;102583.66;5095755;28;20127;-41
2021/03/28 09:31:53;;;;;;;7.25;1.90;;;;;;;11.18;56.96;102580.22;5096173;28;20031;-42
2021/03/28 09:34:56;;;;;;;6.63;2.00;;;;;;;11.34;54.98;102581.81;5096041;28;20477;-41
2021/03/28 09:37:46;;;;;;;8.07;2.60;;;;;;;11.52;54.70;102587.63;5096045;28;20106;-41
2021/03/28 09:40:31;;;;;;;5.60;1.65;;;;;;;11.70;52.51;102586.28;5095065;28;20028;-41
2021/03/28 09:43:14;;;;;;;7.57;1.63;;;;;;;11.79;50.76;102588.66;5095869;28;20090;-41
2021/03/28 09:46:17;;;;;;;8.52;2.03;;;;;;;11.88;49.86;102594.81;5095280;28;20503;-41
2021/03/28 09:48:58;;;;;;;5.85;1.75;;;;;;;11.91;48.33;102591.72;5094819;28;20035;-41
2021/03/28 09:51:40;;;;;;;6.60;1.83;;;;;;;12.08;49.16;102595.78;5094914;28;20384;-41
2021/03/28 09:54:27;;;;;;;6.63;2.00;;;;;;;12.34;49.42;102610.53;5095143;28;20031;-42
2021/03/28 09:56:58;;;;;;;4.40;1.50;;;;;;;12.24;48.20;102599.22;5095272;28;20119;-41
2021/03/28 09:59:54;;;;;;;6.03;1.80;;;;;;;12.21;48.33;102610.47;5094941;28;20040;-42
2021/03/28 10:02:31;;;;;;;7.65;2.85;;;;;;;12.25;47.69;102606.31;5094886;28;20024;-40
2021/03/28 10:05:16;;;;;;;4.88;1.70;;;;;;;12.17;47.68;102610.03;5094868;28;20028;-40
2021/03/28 10:07:45;;;;;;;7.22;2.30;;;;;;;12.25;48.52;102606.31;5094805;28;20032;-41
2021/03/28 10:10:31;;;;;;;5.63;1.80;;;;;;;12.35;48.28;102615.78;5094472;28;20051;-40
2021/03/28 10:13:10;;;;;;;6.03;1.85;;;;;;;12.50;48.14;102610.25;5095104;28;20130;-40
2021/03/28 10:15:53;;;;;;;8.23;1.60;;;;;;;12.71;48.73;102600.31;5094770;28;20107;-40
2021/03/28 10:18:43;;;;;;;6.90;1.70;;;;;;;12.79;47.61;102606.41;5094444;28;20050;-40
2021/03/28 10:21:36;;;;;;;6.22;1.80;;;;;;;12.86;47.16;102598.28;5094815;28;20032;-40
2021/03/28 10:24:11;;;;;;;5.75;1.67;;;;;;;12.81;47.24;102595.34;5094828;28;20030;-40
2021/03/28 10:26:45;;;;;;;6.15;1.95;;;;;;;12.61;46.54;102616.97;5094490;28;20095;-40
2021/03/28 10:29:28;;;;;;;5.82;1.92;;;;;;;12.48;46.16;102622.31;5094535;28;20056;-40
2021/03/28 10:32:19;;;;;;;6.63;2.03;;;;;;;12.28;45.99;102622.19;5094663;28;20123;-40
2021/03/28 10:35:06;;;;;;;9.10;2.03;;;;;;;12.26;46.92;102618.84;5093363;28;20447;-40
2021/03/28 10:37:38;;;;;;;5.15;2.00;;;;;;;12.37;47.66;102612.88;5094257;28;20028;-41
2021/03/28 10:40:18;;;;;;;7.63;2.15;;;;;;;12.46;47.83;102617.09;5094500;28;20027;-40
2021/03/28 10:42:54;;;;;;;4.45;1.80;;;;;;;12.50;48.32;102615.66;5094448;28;20193;-41
2021/03/28 10:45:46;;;;;;;6.50;1.90;;;;;;;12.57;47.68;102610.25;5094223;28;20024;-41
2021/03/28 10:48:36;;;;;;;7.97;2.22;;;;;;;12.57;47.54;102616.53;5052079;28;20119;-41
2021/03/28 10:51:35;;;;;;;6.30;2.15;;;;;;;12.62;48.42;102602.34;5051965;28;20047;-41
2021/03/28 10:54:34;;;;;;;9.30;2.33;;;;;;;12.61;48.40;102609.66;5051670;28;20029;-39
2021/03/28 10:57:33;;;;;;;11.27;1.98;;;;;;;12.61;48.52;102611.53;5051952;28;20024;-41
2021/03/28 11:00:36;;;;;;;6.90;2.22;;;;;;;12.53;48.72;102607.09;5051521;28;20045;-41
2021/03/28 11:03:13;;;;;;;7.35;2.05;;;;;;;12.48;49.51;102611.47;4992098;28;20085;-42
2021/03/28 11:05:57;;;;;;;;;;;;;;;12.57;50.28;102608.38;4993135;28;20034;-40
2021/03/28 11:08:42;;;;;;;7.30;1.60;;;;;;;12.43;49.33;102611.22;4992120;28;19921;-41
2021/03/28 11:11:11;;;;;;;7.28;1.70;;;;;;;12.41;49.42;102621.44;4992327;28;20038;-40
2021/03/28 11:13:55;;;;;;;7.13;1.67;;;;;;;12.37;48.97;102611.00;4992063;28;20038;-39
2021/03/28 11:16:26;;;;;;;6.93;1.85;;;;;;;12.37;49.48;102615.56;4992164;28;20509;-42
2021/03/28 11:19:29;;;;;;;5.93;1.60;;;;;;;12.38;49.10;102620.78;4992238;28;20494;-42
2021/03/28 11:22:22;;;;;;;9.23;1.83;;;;;;;12.34;49.83;102630.38;4992427;28;20093;-41
2021/03/28 11:25:16;;;;;;;7.35;1.80;;;;;;;12.36;50.13;102631.03;5015945;28;20041;-42
2021/03/28 11:28:01;;;;;;;9.57;1.83;;;;;;;12.40;50.45;102620.63;5050585;28;20037;-42
2021/03/28 11:30:35;;;;;;;6.32;1.70;;;;;;;12.34;50.53;102632.25;5051675;28;20056;-41
2021/03/28 11:33:40;;;;;;;6.45;1.95;;;;;;;12.32;51.01;102629.75;5051112;28;20052;-40
2021/03/28 11:36:12;;;;;;;8.00;1.98;;;;;;;12.16;51.11;102629.22;5051246;28;20062;-41
2021/03/28 11:38:43;;;;;;;6.88;1.65;;;;;;;12.10;50.95;102631.69;5050773;28;20060;-40
2021/03/28 11:41:11;;;;;;;8.70;1.83;;;;;;;12.06;51.32;102619.56;5093418;28;20168;-40
2021/03/28 11:43:40;;;;;;;5.93;1.98;;;;;;;11.96;51.50;102635.34;5093410;28;20090;-40
2021/03/28 11:46:05;;;;;;;8.90;2.00;;;;;;;11.98;51.23;102610.72;5093107;28;20035;-40
2021/03/28 11:48:33;;;;;;;9.83;2.20;;;;;;;11.96;52.32;102616.38;5092892;28;20028;-40
2021/03/28 11:51:40;;;;;;;6.22;1.95;;;;;;;12.07;52.74;102614.97;5093910;28;20024;-41
2021/03/28 11:54:08;;;;;;;6.95;2.03;;;;;;;12.06;52.71;102614.13;5093046;28;20028;-40
2021/03/28 11:56:33;;;;;;;7.85;2.45;;;;;;;12.06;52.24;102629.56;5092896;28;20373;-41
2021/03/28 11:59:03;;;;;;;10.60;2.23;;;;;;;12.06;51.94;102616.00;5092057;28;20035;-41
2021/03/28 12:02:00;;;;;;;5.57;1.63;;;;;;;12.08;52.15;102614.75;5093270;28;20020;-41
2021/03/28 12:04:35;;;;;;;6.45;1.88;;;;;;;12.17;52.32;102620.88;5093181;28;20550;-40
2021/03/28 12:07:34;;;;;;;8.63;2.22;;;;;;;12.24;52.67;102612.78;5093474;28;20024;-40
2021/03/28 12:09:59;;;;;;;6.25;1.73;;;;;;;12.26;52.20;102627.00;5093723;28;20106;-40
2021/03/28 12:12:50;;;;;;;8.53;2.07;;;;;;;12.24;52.15;102627.19;5093467;28;20063;-40
2021/03/28 12:15:46;;;;;;;8.07;1.95;;;;;;;12.26;52.49;102618.84;5092677;28;20088;-40
2021/03/28 12:18:21;;;;;;;6.38;2.00;;;;;;;12.32;52.23;102621.59;5093046;28;20032;-41
2021/03/28 12:21:02;;;;;;;8.13;2.10;;;;;;;12.32;52.23;102628.91;5093416;28;20048;-40
2021/03/28 12:23:34;;;;;;;6.55;2.10;;;;;;;12.33;51.19;102627.88;5093079;28;20046;-40
2021/03/28 12:26:23;;;;;;;7.80;2.08;;;;;;;12.30;51.44;102626.41;5093636;28;20034;-40
2021/03/28 12:28:55;;;;;;;7.22;2.15;;;;;;;12.22;51.02;102628.44;5092707;28;20048;-40
2021/03/28 12:31:27;;;;;;;6.85;2.10;;;;;;;12.18;50.98;102627.13;5093564;28;20067;-40
2021/03/28 12:34:21;;;;;;;8.10;2.03;;;;;;;12.19;51.73;102617.97;5092691;28;20036;-40
2021/03/28 12:36:49;;;;;;;5.82;1.83;;;;;;;12.16;52.14;102621.09;5093205;28;20027;-40
2021/03/28 12:39:18;;;;;;;7.97;1.95;;;;;;;12.16;51.89;102612.94;5095396;28;20040;-40
2021/03/28 12:42:01;;;;;;;6.03;1.85;;;;;;;12.19;52.23;102607.13;5096772;28;20314;-40
2021/03/28 12:44:30;;;;;;;7.05;1.95;;;;;;;12.27;52.01;102613.22;5096694;28;20024;-41
2021/03/28 12:47:02;;;;;;;6.28;2.17;;;;;;;12.36;52.45;102619.34;5097003;28;20031;-40
2021/03/28 12:49:48;;;;;;;7.22;2.40;;;;;;;12.45;52.52;102606.47;5096288;28;20066;-41
2021/03/28 12:52:13;;;;;;;7.72;1.80;;;;;;;12.48;52.10;102593.31;5096400;28;20111;-40